地図

経路データ

SID SEASON NUMBER BASIN SUBBASIN NAME ISO_TIME NATURE LAT LON WMO_WIND WMO_PRES WMO_AGENCY TRACK_TYPE DIST2LAND LANDFALL IFLAG USA_AGENCY USA_ATCF_ID USA_LAT USA_LON USA_RECORD USA_STATUS USA_WIND USA_PRES USA_SSHS USA_R34_NE USA_R34_SE USA_R34_SW USA_R34_NW USA_R50_NE USA_R50_SE USA_R50_SW USA_R50_NW USA_R64_NE USA_R64_SE USA_R64_SW USA_R64_NW USA_POCI USA_ROCI USA_RMW USA_EYE TOKYO_LAT TOKYO_LON TOKYO_GRADE TOKYO_WIND TOKYO_PRES TOKYO_R50_DIR TOKYO_R50_LONG TOKYO_R50_SHORT TOKYO_R30_DIR TOKYO_R30_LONG TOKYO_R30_SHORT TOKYO_LAND CMA_LAT CMA_LON CMA_CAT CMA_WIND CMA_PRES HKO_LAT HKO_LON HKO_CAT HKO_WIND HKO_PRES NEWDELHI_LAT NEWDELHI_LON NEWDELHI_GRADE NEWDELHI_WIND NEWDELHI_PRES NEWDELHI_CI NEWDELHI_DP NEWDELHI_POCI REUNION_LAT REUNION_LON REUNION_TYPE REUNION_WIND REUNION_PRES REUNION_TNUM REUNION_CI REUNION_RMW REUNION_R34_NE REUNION_R34_SE REUNION_R34_SW REUNION_R34_NW REUNION_R50_NE REUNION_R50_SE REUNION_R50_SW REUNION_R50_NW REUNION_R64_NE REUNION_R64_SE REUNION_R64_SW REUNION_R64_NW BOM_LAT BOM_LON BOM_TYPE BOM_WIND BOM_PRES BOM_TNUM BOM_CI BOM_RMW BOM_R34_NE BOM_R34_SE BOM_R34_SW BOM_R34_NW BOM_R50_NE BOM_R50_SE BOM_R50_SW BOM_R50_NW BOM_R64_NE BOM_R64_SE BOM_R64_SW BOM_R64_NW BOM_ROCI BOM_POCI BOM_EYE BOM_POS_METHOD BOM_PRES_METHOD NADI_LAT NADI_LON NADI_CAT NADI_WIND NADI_PRES WELLINGTON_LAT WELLINGTON_LON WELLINGTON_WIND WELLINGTON_PRES DS824_LAT DS824_LON DS824_STAGE DS824_WIND DS824_PRES TD9636_LAT TD9636_LON TD9636_STAGE TD9636_WIND TD9636_PRES TD9635_LAT TD9635_LON TD9635_WIND TD9635_PRES TD9635_ROCI NEUMANN_LAT NEUMANN_LON NEUMANN_CLASS NEUMANN_WIND NEUMANN_PRES MLC_LAT MLC_LON MLC_CLASS MLC_WIND MLC_PRES USA_GUST BOM_GUST BOM_GUST_PER REUNION_GUST REUNION_GUST_PER USA_SEAHGT USA_SEARAD_NE USA_SEARAD_SE USA_SEARAD_SW USA_SEARAD_NW STORM_SPEED STORM_DIR
1952224N14135 1952 51 WP MM KAREN 1952-08-10 12:00:00 TS 13.7000 134.700 main 1011 970 O________OOO__ jtwc_wp WP081952 13.7000 134.700 25 -1 13.7000 134.700 TC 25 13.7000 134.700 1 25 13.7000 134.700 25 1003 240 8 292
1952224N14135 1952 51 WP MM KAREN 1952-08-10 15:00:00 TS 13.8547 134.298 main 972 932 P________PPP__ WP081952 13.8577 134.285 27 -1 13.8577 134.285 TC 27 13.8456 134.338 1 26 13.8577 134.285 27 1003 270 8 291
1952224N14135 1952 51 WP MM KAREN 1952-08-10 18:00:00 TS 13.9957 133.918 main 932 902 O________OPO__ jtwc_wp WP081952 14.0000 133.900 30 -1 14.0000 133.900 TC 30 13.9828 133.971 1 27 14.0000 133.900 30 1003 300 8 290
1952224N14135 1952 51 WP MM KAREN 1952-08-10 21:00:00 TS 14.1120 133.566 main 902 863 P________PPP__ WP081952 14.1148 133.557 30 -1 14.1148 133.557 TC 30 14.1036 133.593 1 28 14.1148 133.557 30 1002 330 7 286
1952224N14135 1952 51 WP MM KAREN 1952-08-11 00:00:00 TS 14.2000 133.200 main 863 821 O________OOO__ jtwc_wp WP081952 14.2000 133.200 30 -1 14.2000 133.200 TC 30 14.2000 133.200 1 30 14.2000 133.200 30 1002 360 8 280
1952224N14135 1952 51 WP MM KAREN 1952-08-11 03:00:00 TS 14.2548 132.765 main 824 772 P________PPP__ WP081952 14.2500 132.757 30 -1 14.2500 132.757 TC 30 14.2690 132.789 1 31 14.2500 132.757 30 1001 360 9 277
1952224N14135 1952 51 WP MM KAREN 1952-08-11 06:00:00 TS 14.3068 132.316 main 772 735 O________OPO__ jtwc_wp WP081952 14.3000 132.300 30 -1 14.3000 132.300 TC 30 14.3274 132.364 1 32 14.3000 132.300 30 1001 360 8 280
1952224N14135 1952 51 WP MM KAREN 1952-08-11 09:00:00 TS 14.3935 131.914 main 735 698 P________PPP__ WP081952 14.3923 131.907 32 -1 14.3923 131.907 TC 32 14.3971 131.933 1 33 14.3923 131.907 32 1000 330 8 284
1952224N14135 1952 51 WP MM KAREN 1952-08-11 12:00:00 TS 14.5000 131.500 main 698 653 O________OOO__ jtwc_wp WP081952 14.5000 131.500 35 0 14.5000 131.500 TC 35 14.5000 131.500 2 35 14.5000 131.500 35 999 300 9 283
1952224N14135 1952 51 WP MM KAREN 1952-08-11 15:00:00 TS 14.5926 131.001 main 653 609 P________PPP__ WP081952 14.5701 130.992 35 0 14.5701 130.992 TC 35 14.6603 131.027 2 36 14.5701 130.992 35 998 330 10 284
1952224N14135 1952 51 WP MM KAREN 1952-08-11 18:00:00 TS 14.7389 130.515 main 609 587 O________OPO__ jtwc_wp WP081952 14.7000 130.500 35 0 14.7000 130.500 TC 35 14.8554 130.561 2 37 14.7000 130.500 35 998 360 10 295
1952224N14135 1952 51 WP MM KAREN 1952-08-11 21:00:00 TS 15.0013 130.108 main 587 578 P________PPP__ WP081952 14.9774 130.098 37 0 14.9774 130.098 TC 37 15.0728 130.139 2 38 14.9774 130.098 37 996 360 6 301
1952224N14135 1952 51 WP MM KAREN 1952-08-12 00:00:00 TS 15.0444 129.989 1002 tokyo main 578 575 OOO______OOO__ jtwc_wp WP081952 15.3000 129.800 40 0 13.0000 131.500 2 1002 0 0 0 13.0000 131.500 0 1002 15.3000 129.800 TC 40 15.3000 129.800 2 40 15.3000 129.800 40 995 360 2 297
1952224N14135 1952 51 WP MM KAREN 1952-08-12 03:00:00 TS 15.1029 129.901 main 575 573 PPP______PPP__ WP081952 15.5649 129.612 42 0 13.3651 131.100 2 1002 0 0 13.2476 131.088 0 1002 15.5649 129.612 TC 42 15.5133 129.572 2 42 15.5649 129.612 42 994 390 2 313
1952224N14135 1952 51 WP MM KAREN 1952-08-12 06:00:00 TS 15.2017 129.814 1002 tokyo main 573 571 OOO______OPO__ jtwc_wp WP081952 15.8000 129.500 45 0 13.7000 130.700 2 1002 0 0 0 13.6000 130.700 1 29 1002 15.8000 129.500 TC 45 15.7345 129.430 2 45 15.8000 129.500 45 993 420 3 321
1952224N14135 1952 51 WP MM KAREN 1952-08-12 09:00:00 TS 15.3485 129.696 main 571 569 PPP______PPP__ WP081952 15.9925 129.385 47 0 14.0175 130.312 2 1001 0 0 14.1325 130.363 1 33 1001 15.9925 129.385 TC 47 15.9634 129.347 2 47 15.9925 129.385 47 991 390 5 332
1952224N14135 1952 51 WP MM KAREN 1952-08-12 12:00:00 TS 15.6833 129.550 1000 tokyo main 591 583 OOO______OOO__ jtwc_wp WP081952 16.2000 129.300 50 0 14.5000 130.000 2 1000 0 0 0 14.8000 130.100 2 38 1000 16.2000 129.300 TC 50 16.2000 129.300 2 50 16.2000 129.300 50 989 360 8 343
1952224N14135 1952 51 WP MM KAREN 1952-08-12 15:00:00 TS 16.1389 129.446 main 590 590 PPP______PPP__ WP081952 16.5000 129.235 55 0 15.3624 129.805 2 999 0 0 15.5649 129.920 2 38 999 16.5000 129.235 TC 55 16.4062 129.246 2 53 16.5000 129.235 55 987 390 9 350
1952224N14135 1952 51 WP MM KAREN 1952-08-12 18:00:00 TS 16.6042 129.387 998 tokyo main 615 615 OOO______OPO__ jtwc_wp WP081952 16.8000 129.200 60 0 16.3000 129.700 2 998 0 0 0 16.3000 129.800 2 38 998 16.8000 129.200 TC 60 16.6250 129.220 2 57 16.8000 129.200 60 986 420 8 354
1952224N14135 1952 51 WP MM KAREN 1952-08-12 21:00:00 TS 16.9573 129.362 main 638 638 PPP______PPP__ WP081952 16.9775 129.200 62 0 17.0624 129.657 2 996 0 0 16.8674 129.707 2 43 996 16.9775 129.200 TC 62 16.8812 129.209 2 61 16.9775 129.200 62 983 390 7 355
1952224N14135 1952 51 WP MM KAREN 1952-08-13 00:00:00 TS 17.2833 129.333 995 tokyo main 648 648 OOO______OOO__ jtwc_wp WP081952 17.2000 129.200 65 1 17.6000 129.600 9 995 0 0 0 17.3000 129.600 3 48 995 17.2000 129.200 TC 65 17.2000 129.200 3 65 17.2000 129.200 65 981 360 7 350
1952224N14135 1952 51 WP MM KAREN 1952-08-13 03:00:00 TS 17.6399 129.240 main 659 659 PPP______PPP__ WP081952 17.6050 129.150 67 1 17.7950 129.422 9 991 0 0 17.6150 129.400 3 53 991 17.6050 129.150 TC 67 17.6144 129.167 3 66 17.6050 129.150 67 979 390 8 346
1952224N14135 1952 51 WP MM KAREN 1952-08-13 06:00:00 TS 18.0317 129.139 988 tokyo main 680 680 OOO______OPO__ jtwc_wp WP081952 18.1000 129.100 70 1 17.9000 129.200 9 988 0 0 0 17.9000 129.200 3 58 988 18.1000 129.100 TC 70 18.0901 129.135 3 67 18.1000 129.100 70 977 420 9 348
1952224N14135 1952 51 WP MM KAREN 1952-08-13 09:00:00 TS 18.4722 129.060 main 717 706 PPP______PPP__ WP081952 18.6000 129.085 70 1 18.1826 128.955 9 986 0 0 18.2550 129.040 3 63 986 18.6000 129.085 TC 70 18.5957 129.111 3 68 18.6000 129.085 70 976 390 9 354
1952224N14135 1952 51 WP MM KAREN 1952-08-13 12:00:00 TS 18.9500 129.033 985 tokyo main 708 708 OOO______OOO__ jtwc_wp WP081952 19.1000 129.100 70 1 18.6000 128.800 9 985 0 0 0 18.7000 129.000 4 68 985 19.1000 129.100 TC 70 19.1000 129.100 4 70 19.1000 129.100 70 975 360 10 2
1952224N14135 1952 51 WP MM KAREN 1952-08-13 15:00:00 TS 19.4391 129.090 main 724 724 PPP______PPP__ WP081952 19.5575 129.150 70 1 19.1473 128.796 9 984 0 0 19.2701 129.155 4 68 984 19.5575 129.150 TC 70 19.5450 129.142 4 70 19.5575 129.150 70 974 360 10 9
1952224N14135 1952 51 WP MM KAREN 1952-08-13 18:00:00 TS 19.9475 129.199 983 tokyo main 743 743 OOO______OPO__ jtwc_wp WP081952 20.0000 129.200 70 1 19.8000 129.000 9 983 0 0 0 19.9000 129.400 4 68 983 20.0000 129.200 TC 70 19.9849 129.194 4 70 20.0000 129.200 70 974 360 11 14
1952224N14135 1952 51 WP MM KAREN 1952-08-13 21:00:00 TS 20.4613 129.361 main 780 780 PPP______PPP__ WP081952 20.4350 129.230 70 1 20.5157 129.580 9 982 0 0 20.5150 129.674 4 68 982 20.4350 129.230 TC 70 20.4324 129.223 4 70 20.4350 129.230 70 974 360 11 12
1952224N14135 1952 51 WP MM KAREN 1952-08-14 00:00:00 TS 20.9833 129.433 981 tokyo main 797 797 OOO______OOO__ jtwc_wp WP081952 20.9000 129.200 70 1 21.2000 130.000 9 981 0 0 0 21.1000 129.800 4 68 981 20.9000 129.200 TC 70 20.9000 129.200 4 70 20.9000 129.200 70 974 360 11 355
1952224N14135 1952 51 WP MM KAREN 1952-08-14 03:00:00 TS 21.5178 129.264 main 809 776 PPP______PPP__ WP081952 21.4425 129.080 70 1 21.7453 129.672 9 979 0 0 21.6226 129.576 4 68 979 21.4425 129.080 TC 70 21.4116 129.095 4 70 21.4425 129.080 70 974 360 11 339
1952224N14135 1952 51 WP MM KAREN 1952-08-14 06:00:00 TS 22.0404 128.989 977 tokyo main 776 737 OOO______OPO__ jtwc_wp WP081952 22.0000 128.900 70 1 22.2000 129.100 9 977 0 0 0 22.1000 129.200 4 68 977 22.0000 128.900 TC 70 21.9425 128.933 4 70 22.0000 128.900 70 974 360 11 335
1952224N14135 1952 51 WP MM KAREN 1952-08-14 09:00:00 TS 22.5249 128.755 main 737 691 PPP______PPP__ WP081952 22.5075 128.715 70 1 22.5999 128.762 9 975 0 0 22.5500 128.892 4 72 975 22.5075 128.715 TC 70 22.4772 128.729 4 70 22.5075 128.715 70 974 360 11 336
1952224N14135 1952 51 WP MM KAREN 1952-08-14 12:00:00 TS 23.0000 128.517 974 tokyo main 691 659 OOO______OOO__ jtwc_wp WP081952 23.0000 128.500 70 1 23.0000 128.500 9 974 0 0 0 23.0000 128.600 4 77 974 23.0000 128.500 TC 70 23.0000 128.500 4 70 23.0000 128.500 70 975 360 11 336
1952224N14135 1952 51 WP MM KAREN 1952-08-14 15:00:00 TS 23.5036 128.276 main 659 616 PPP______PPP__ WP081952 23.5075 128.257 70 1 23.4849 128.292 9 972 0 0 23.4924 128.342 4 77 972 23.5075 128.257 TC 70 23.5220 128.252 4 70 23.5075 128.257 70 975 390 11 336
1952224N14135 1952 51 WP MM KAREN 1952-08-14 18:00:00 TS 24.0042 128.031 971 tokyo main 616 587 OOO______OPO__ jtwc_wp WP081952 24.0000 128.000 70 1 24.0000 128.100 9 971 0 0 0 24.0000 128.100 4 77 971 24.0000 128.000 TC 70 24.0253 127.986 4 70 24.0000 128.000 70 976 420 11 335
1952224N14135 1952 51 WP MM KAREN 1952-08-14 21:00:00 TS 24.5022 127.771 main 587 554 PPP______PPP__ WP081952 24.4875 127.728 70 1 24.5300 127.858 9 970 0 0 24.5299 127.857 4 77 970 24.4875 127.728 TC 70 24.4908 127.727 4 70 24.4875 127.728 70 975 420 10 334
1952224N14135 1952 51 WP MM KAREN 1952-08-15 00:00:00 TS 24.9333 127.533 969 tokyo main 554 543 OOO______OOO__ jtwc_wp WP081952 24.9000 127.500 70 1 25.0000 127.600 9 969 0 0 0 25.0000 127.600 4 77 969 24.9000 127.500 TC 70 24.9000 127.500 4 70 24.9000 127.500 70 975 420 8 333
1952224N14135 1952 51 WP MM KAREN 1952-08-15 03:00:00 TS 25.2406 127.358 main 543 524 PPP______PPP__ WP081952 25.1724 127.385 70 1 25.3450 127.342 9 966 0 0 25.3449 127.315 4 82 966 25.1724 127.385 TC 70 25.2363 127.338 4 71 25.1724 127.385 70 974 390 6 332
1952224N14135 1952 51 WP MM KAREN 1952-08-15 06:00:00 TS 25.4862 127.202 964 tokyo main 525 508 OOO______OPO__ jtwc_wp WP081952 25.4000 127.300 70 1 25.6000 127.100 9 964 0 0 0 25.6000 127.000 5 87 964 25.4000 127.300 TC 70 25.5171 127.211 4 72 25.4000 127.300 70 974 360 6 329
1952224N14135 1952 51 WP MM KAREN 1952-08-15 09:00:00 TS 25.7465 127.025 main 508 494 PPP______PPP__ WP081952 25.7000 127.158 72 1 25.8148 126.915 9 962 0 0 25.8000 126.657 5 87 962 25.7000 127.158 TC 72 25.7645 127.104 4 73 25.7000 127.158 72 972 360 6 327
1952224N14135 1952 51 WP MM KAREN 1952-08-15 12:00:00 TS 26.0000 126.833 960 tokyo main 494 479 OOO______OOO__ jtwc_wp WP081952 26.0000 127.000 75 1 26.0000 126.700 9 960 0 0 0 26.0000 126.300 5 87 960 26.0000 127.000 TC 75 26.0000 127.000 4 75 26.0000 127.000 75 970 360 6 323
1952224N14135 1952 51 WP MM KAREN 1952-08-15 15:00:00 TS 26.2452 126.615 main 479 471 PPP______PPP__ WP081952 26.2575 126.842 77 1 26.2001 126.365 9 959 0 0 26.2701 125.913 5 92 959 26.2575 126.842 TC 77 26.2287 126.883 4 76 26.2575 126.842 77 967 330 6 322
1952224N14135 1952 51 WP MM KAREN 1952-08-15 18:00:00 TS 26.4925 126.411 958 tokyo main 471 465 OOO______OPO__ jtwc_wp WP081952 26.5000 126.700 80 1 26.4000 126.000 9 958 0 0 0 26.6000 125.600 5 97 958 26.5000 126.700 TC 80 26.4549 126.764 4 77 26.5000 126.700 80 964 300 6 327
1952224N14135 1952 51 WP MM KAREN 1952-08-15 21:00:00 TS 26.7326 126.263 main 469 465 PPP______PPP__ WP081952 26.7199 126.607 80 1 26.5401 125.655 9 957 0 0 26.9923 125.462 5 97 957 26.7199 126.607 TC 80 26.7037 126.639 4 78 26.7199 126.607 80 960 270 6 335
1952224N14135 1952 51 WP MM KAREN 1952-08-16 00:00:00 TS 27.0333 126.133 956 tokyo main 465 439 OOO______OOO__ jtwc_wp WP081952 27.0000 126.500 80 1 26.8000 125.400 9 956 0 0 0 27.4000 125.400 5 97 956 27.0000 126.500 TC 80 27.0000 126.500 4 80 27.0000 126.500 80 957 240 8 341
1952224N14135 1952 51 WP MM KAREN 1952-08-16 03:00:00 TS 27.4654 125.971 main 434 398 PPP______PPP__ WP081952 27.4276 126.308 82 1 27.3699 125.290 9 955 0 0 27.7650 125.278 5 97 955 27.4276 126.308 TC 82 27.3748 126.336 4 81 27.4276 126.308 82 956 240 9 343
1952224N14135 1952 51 WP MM KAREN 1952-08-16 06:00:00 TS 27.9329 125.826 955 tokyo main 398 373 OOO______OPO__ jtwc_wp WP081952 27.9000 126.100 85 2 28.0000 125.300 9 955 0 0 0 28.1000 125.200 5 97 955 27.9000 126.100 TC 85 27.7976 126.158 4 82 27.9000 126.100 85 955 240 9 347
1952224N14135 1952 51 WP MM KAREN 1952-08-16 09:00:00 TS 28.3319 125.740 main 373 363 PPP______PPP__ WP081952 28.3000 125.942 85 2 28.4450 125.407 9 955 0 0 28.4000 125.227 5 97 955 28.3000 125.942 TC 85 28.2466 125.976 4 83 28.3000 125.942 85 955 210 8 350
1952224N14135 1952 51 WP MM KAREN 1952-08-16 12:00:00 TS 28.7167 125.667 955 tokyo main 363 349 OOO______OOO__ jtwc_wp WP081952 28.7000 125.800 85 2 28.8000 125.500 9 955 0 0 0 28.7000 125.300 5 97 955 28.7000 125.800 TC 85 28.7000 125.800 4 85 28.7000 125.800 85 955 180 8 349
1952224N14135 1952 51 WP MM KAREN 1952-08-16 15:00:00 TS 29.1222 125.560 main 349 339 PPP______PPP__ WP081952 29.1500 125.650 82 1 29.1075 125.430 9 955 0 0 29.0425 125.350 5 97 955 29.1500 125.650 TC 82 29.1331 125.631 4 83 29.1500 125.650 82 955 210 8 347
1952224N14135 1952 51 WP MM KAREN 1952-08-16 18:00:00 TS 29.5275 125.445 955 tokyo main 330 327 OOO______OPO__ jtwc_wp WP081952 29.6000 125.500 80 1 29.4000 125.300 9 955 0 0 0 29.4000 125.400 5 97 955 29.6000 125.500 TC 80 29.5650 125.470 4 82 29.6000 125.500 80 956 240 8 346
1952224N14135 1952 51 WP MM KAREN 1952-08-16 21:00:00 TS 29.9262 125.331 main 327 320 PPP______PPP__ WP081952 30.0225 125.342 80 1 29.7425 125.170 9 956 0 0 29.7575 125.465 5 92 956 30.0225 125.342 TC 80 29.9894 125.324 4 81 30.0225 125.342 80 957 240 8 347
1952224N14135 1952 51 WP MM KAREN 1952-08-17 00:00:00 TS 30.3000 125.233 957 tokyo main 322 307 OOO______OOO__ jtwc_wp WP081952 30.4000 125.200 80 1 30.1000 125.100 9 957 0 0 0 30.1000 125.500 5 87 957 30.4000 125.200 TC 80 30.4000 125.200 4 80 30.4000 125.200 80 958 240 7 348
1952224N14135 1952 51 WP MM KAREN 1952-08-17 03:00:00 TS 30.6051 125.159 main 307 280 PPP______PPP__ WP081952 30.6925 125.085 77 1 30.4350 125.177 9 958 0 0 30.3775 125.458 5 87 958 30.6925 125.085 TC 77 30.7406 125.067 4 77 30.6925 125.085 77 959 240 6 350
1952224N14135 1952 51 WP MM KAREN 1952-08-17 06:00:00 TS 30.9292 125.110 959 tokyo main 280 239 OOO______OPO__ jtwc_wp WP081952 31.0000 125.000 75 1 30.8000 125.300 9 959 0 0 0 30.7000 125.400 5 87 959 31.0000 125.000 TC 75 31.0749 124.961 4 75 31.0000 125.000 75 961 240 7 354
1952224N14135 1952 51 WP MM KAREN 1952-08-17 09:00:00 TS 31.3245 125.077 main 239 192 PPP______PPP__ WP081952 31.3825 124.928 72 1 31.2050 125.372 9 961 0 0 31.1475 125.407 5 82 961 31.3825 124.928 TC 72 31.4468 124.899 4 72 31.3825 124.928 72 968 210 9 358
1952224N14135 1952 51 WP MM KAREN 1952-08-17 12:00:00 TS 31.8333 125.067 963 tokyo main 192 143 OOO______OOO__ jtwc_wp WP081952 31.9000 124.900 70 1 31.7000 125.400 9 963 0 0 0 31.7000 125.400 4 77 963 31.9000 124.900 TC 70 31.9000 124.900 4 70 31.9000 124.900 70 975 180 12 359
1952224N14135 1952 51 WP MM KAREN 1952-08-17 15:00:00 TS 32.4900 125.046 main 143 102 PPP______PPP__ WP081952 32.6274 124.905 67 1 32.2975 125.365 9 966 0 0 32.3051 125.300 4 77 966 32.6274 124.905 TC 67 32.4549 124.893 4 67 32.6274 124.905 67 977 210 14 1
1952224N14135 1952 51 WP MM KAREN 1952-08-17 18:00:00 TS 33.2162 125.077 969 tokyo main 102 102 OOO______OPO__ jtwc_wp WP081952 33.4000 125.000 65 1 33.0000 125.300 9 969 0 0 0 33.0000 125.200 4 77 969 33.4000 125.000 TC 65 33.0975 124.962 4 65 33.4000 125.000 65 980 240 14 3
1952224N14135 1952 51 WP MM KAREN 1952-08-17 21:00:00 TS 33.8658 125.127 main 119 82 PPP______PPP__ WP081952 33.9618 125.148 62 0 33.7466 125.112 9 972 0 0 33.7465 125.054 4 72 972 33.9618 125.148 TC 62 33.8164 125.149 4 62 33.9618 125.148 62 981 270 14 11
1952224N14135 1952 51 WP MM KAREN 1952-08-18 00:00:00 TS 34.6000 125.400 975 tokyo main 82 35 OOO______OOO__ jtwc_wp WP081952 34.6000 125.500 60 0 34.6000 125.200 9 975 0 0 0 34.6000 125.200 4 68 975 34.6000 125.500 TC 60 34.6000 125.500 2 60 34.6000 125.500 60 982 300 19 24
1952224N14135 1952 51 WP MM KAREN 1952-08-18 03:00:00 TS 35.5626 126.061 main 36 0 PPP______PPP__ WP081952 35.5782 126.172 57 0 35.5935 125.939 9 977 0 0 35.5935 125.947 4 63 977 35.5782 126.172 TC 57 35.4540 125.961 2 57 35.5782 126.172 57 983 300 23 32
1952224N14135 1952 51 WP MM KAREN 1952-08-18 06:00:00 TS 36.5596 126.934 980 tokyo main 0 0 OOO______OPO__ jtwc_wp WP081952 36.6000 127.000 55 0 36.6000 127.000 9 980 0 0 0 36.6000 127.000 3 58 980 36.6000 127.000 TC 55 36.3576 126.605 2 55 36.6000 127.000 55 984 300 23 36
1952224N14135 1952 51 WP MM KAREN 1952-08-18 09:00:00 TS 37.4085 127.724 main 0 0 PPP______PPP__ WP081952 37.3923 127.665 52 0 37.5073 127.913 9 981 0 0 37.5094 127.986 3 58 981 37.3923 127.665 TC 52 37.2575 127.448 2 52 37.3923 127.665 52 985 300 21 41
1952224N14135 1952 51 WP MM KAREN 1952-08-18 12:00:00 TS 38.1667 128.667 982 tokyo main 14 14 OOO______OOO__ jtwc_wp WP081952 38.1000 128.500 50 0 38.3000 129.000 9 982 0 0 0 38.3000 129.000 3 58 982 38.1000 128.500 TC 50 38.1000 128.500 2 50 38.1000 128.500 50 986 300 23 50
1952224N14135 1952 51 WP MM KAREN 1952-08-18 15:00:00 TS 38.8706 129.906 main 131 131 PPP______PPP__ WP081952 38.8297 129.723 50 0 38.9566 130.536 9 983 0 0 38.9356 129.967 3 58 983 38.8297 129.723 TC 50 38.8425 129.764 2 48 38.8297 129.723 50 986 330 24 57
1952224N14135 1952 51 WP MM KAREN 1952-08-18 18:00:00 TS 39.4990 131.304 984 tokyo main 198 198 OOO______OPO__ jtwc_wp WP081952 39.5000 131.200 50 0 39.5000 132.000 9 984 0 0 0 39.5000 131.000 3 58 984 39.5000 131.200 TC 50 39.4925 131.201 2 47 39.5000 131.200 50 987 360 24 61
1952224N14135 1952 51 WP MM KAREN 1952-08-18 21:00:00 TS 40.0399 132.643 main 260 245 PPP______PPP__ WP081952 40.0630 132.737 47 0 39.9338 132.761 9 985 0 0 40.0611 132.180 3 53 985 40.0630 132.737 TC 47 40.0708 132.763 2 46 40.0630 132.737 47 988 360 24 62
1952224N14135 1952 51 WP MM KAREN 1952-08-19 00:00:00 TS 40.6000 134.040 986 tokyo main 245 216 OOO______OOO__ jtwc_wp WP081952 40.6000 134.400 45 0 40.5000 133.500 9 986 0 0 0 40.7000 133.500 3 48 986 40.6000 134.400 TC 45 40.6000 134.400 2 45 40.6000 134.400 45 989 360 27 60
1952224N14135 1952 51 WP MM KAREN 1952-08-19 03:00:00 TS 41.3722 135.693 main 222 214 PPP______P_P__ WP081952 41.1977 136.361 42 0 41.5767 134.873 9 987 0 0 41.6088 134.941 3 48 987 41.1977 136.361 TC 42 2 41.1884 136.164 42 989 330 29 58
1952224N14135 1952 51 WP MM KAREN 1952-08-19 06:00:00 TS 42.1059 137.294 988 tokyo main 206 130 OOO______O_O__ jtwc_wp WP081952 41.8000 138.000 40 0 42.5000 136.500 9 988 0 0 0 42.4000 136.500 3 48 988 41.8000 138.000 TC 40 2 41.8000 138.000 40 990 300 23 58
1952224N14135 1952 51 WP MM KAREN 1952-08-19 09:00:00 TS 42.5682 138.281 main 122 53 PPP______P____ WP081952 42.4666 138.551 40 0 42.6253 138.012 9 989 0 0 42.7143 138.009 3 48 989 42.4666 138.551 TC 40 2 16 64
1952224N14135 1952 51 WP MM KAREN 1952-08-19 12:00:00 TS 42.8250 139.300 990 tokyo main 46 0 OOO______O____ jtwc_wp WP081952 43.0000 139.000 40 0 42.5000 139.500 9 990 0 0 0 42.8000 139.700 3 48 990 43.0000 139.000 TC 40 19 79
1952224N14135 1952 51 WP MM KAREN 1952-08-19 15:00:00 TS 42.9337 140.836 main 0 0 PPP______P____ WP081952 43.1694 140.339 40 0 42.5586 140.857 9 991 0 0 42.8373 141.811 3 43 991 43.1694 140.339 TC 40 24 85
1952224N14135 1952 51 WP MM KAREN 1952-08-19 18:00:00 TS 43.0250 142.625 993 tokyo main 0 0 OOO______O____ jtwc_wp WP081952 43.2000 142.000 40 0 42.8000 142.500 9 993 0 0 0 42.9000 144.000 2 38 993 43.2000 142.000 TC 40 27 82
1952224N14135 1952 51 WP MM KAREN 1952-08-19 21:00:00 TS 43.2957 144.507 main 0 0 PPP______P____ WP081952 43.3389 143.541 37 0 43.3601 144.956 9 993 0 0 43.1449 145.989 2 38 993 43.3389 143.541 TC 37 28 78
1952224N14135 1952 51 WP MM KAREN 1952-08-20 00:00:00 MX 43.6000 146.425 994 tokyo main 58 58 OOO______O____ jtwc_wp WP081952 43.5000 145.200 35 0 43.9000 147.500 6 994 0 0 0 43.5000 147.800 9 38 994 43.5000 145.200 TC 35 27 79
1952224N14135 1952 51 WP MM KAREN 1952-08-20 03:00:00 MX 43.8239 148.231 main 118 118 PPP______P____ WP081952 43.6537 147.003 35 0 44.0826 149.441 6 995 0 0 43.9057 149.476 9 995 43.6537 147.003 TC 35 27 80
1952224N14135 1952 51 WP MM KAREN 1952-08-20 06:00:00 MX 44.0571 150.086 996 tokyo main 168 168 OOO______O____ jtwc_wp WP081952 43.8000 149.000 35 0 44.2000 150.900 6 996 0 0 0 44.3000 150.900 9 996 43.8000 149.000 TC 35 25 79
1952224N14135 1952 51 WP MM KAREN 1952-08-20 09:00:00 MX 44.3080 151.719 main 213 213 PPP______P____ WP081952 43.9202 151.194 32 -1 44.4574 151.935 6 997 0 0 44.5466 152.029 9 997 43.9202 151.194 TC 32 22 74
1952224N14135 1952 51 WP MM KAREN 1952-08-20 12:00:00 MX 44.6400 153.020 998 tokyo main 261 261 OOO______O____ jtwc_wp WP081952 44.0000 153.500 30 -1 44.8000 152.800 6 998 0 0 0 44.8000 153.000 9 998 44.0000 153.500 TC 30 18 62
1952224N14135 1952 51 WP MM KAREN 1952-08-20 15:00:00 ET 45.1729 153.978 main 296 296 _PP___________ WP081952 -1 45.1772 153.921 6 998 0 0 45.1687 154.036 9 998 TC 17 57
1952224N14135 1952 51 WP MM KAREN 1952-08-20 18:00:00 ET 45.6000 155.100 998 tokyo main 366 366 _OO___________ -1 45.6000 155.100 6 998 0 0 0 45.6000 155.100 9 998 18 62
1952224N14135 1952 51 WP MM KAREN 1952-08-20 21:00:00 ET 46.0426 156.280 main 449 413 _PP___________ -1 46.0424 156.288 6 999 0 0 46.0428 156.273 9 999 18 61
1952224N14135 1952 51 WP MM KAREN 1952-08-21 00:00:00 ET 46.5000 157.400 1000 tokyo main 415 403 _OO___________ -1 46.5000 157.400 6 1000 0 0 0 46.5000 157.400 9 1000 17 58
1952224N14135 1952 51 WP MM KAREN 1952-08-21 03:00:00 ET 46.9496 158.413 main 408 388 _PP___________ -1 46.9496 158.413 6 1000 0 0 46.9496 158.413 9 1000 15 54
1952224N14135 1952 51 WP MM KAREN 1952-08-21 06:00:00 ET 47.4000 159.200 1000 tokyo main 392 386 _OO___________ -1 47.4000 159.200 6 1000 0 0 0 47.4000 159.200 9 1000 12 47
1952224N14135 1952 51 WP MM KAREN 1952-08-21 09:00:00 ET 47.7511 159.666 main 383 363 _PP___________ -1 47.7511 159.666 6 1000 0 0 47.7511 159.666 9 1000 10 31
1952224N14135 1952 51 WP MM KAREN 1952-08-21 12:00:00 ET 48.3000 160.000 1000 tokyo main 363 310 _OO___________ -1 48.3000 160.000 6 1000 0 0 0 48.3000 160.000 9 1000 17 17
1952224N14135 1952 51 WP MM KAREN 1952-08-21 15:00:00 ET 49.3313 160.413 main 310 247 _PP___________ -1 49.3313 160.413 6 1000 0 0 49.3313 160.413 9 1000 23 16
1952224N14135 1952 51 WP MM KAREN 1952-08-21 18:00:00 ET 50.5000 161.000 1000 tokyo main 247 217 _OO___________ -1 50.5000 161.000 6 1000 0 0 0 50.5000 161.000 9 1000 23 22
1952224N14135 1952 51 WP MM KAREN 1952-08-21 21:00:00 ET 51.4638 161.795 main 211 197 _PP___________ -1 51.4638 161.795 6 1001 0 0 51.4638 161.795 9 1000 22 35
1952224N14135 1952 51 WP MM KAREN 1952-08-22 00:00:00 ET 52.3000 163.000 1002 tokyo main 213 213 _OO___________ -1 52.3000 163.000 6 1002 0 0 0 52.3000 163.000 9 1000 24 48
1952224N14135 1952 51 WP MM KAREN 1952-08-22 03:00:00 ET 53.0475 164.716 main 253 249 _PP___________ -1 53.0401 164.718 6 1001 0 0 53.0550 164.715 9 1001 26 60
1952224N14135 1952 51 WP MM KAREN 1952-08-22 06:00:00 ET 53.6000 166.800 1000 tokyo main 327 327 _OO___________ -1 53.6000 166.800 6 1000 0 0 0 53.6000 166.800 9 1002 28 71
1952224N14135 1952 51 WP MM KAREN 1952-08-22 09:00:00 ET 53.9609 169.137 main 435 435 _PP___________ -1 54.0184 169.134 6 1000 0 0 53.9035 169.140 9 1002 26 79
1952224N14135 1952 51 WP MM KAREN 1952-08-22 12:00:00 ET 54.1000 171.200 1000 tokyo main 544 544 _OO___________ -1 54.2000 171.200 6 1000 0 0 0 54.0000 171.200 9 1002 19 87
1952224N14135 1952 51 WP MM KAREN 1952-08-22 15:00:00 ET 54.0742 172.468 main 619 619 _PP___________ -1 54.1317 172.470 6 1000 0 0 54.0167 172.466 9 1002 12 95
1952224N14135 1952 51 WP MM KAREN 1952-08-22 18:00:00 ET 54.0000 173.200 1000 tokyo main 665 665 _OO___________ -1 54.0000 173.200 6 1000 0 0 0 54.0000 173.200 9 1002 8 94
1952224N14135 1952 51 WP MM KAREN 1952-08-22 21:00:00 ET 54.0262 173.755 main 686 677 _PP___________ -1 54.0187 173.754 6 1001 0 0 54.0337 173.755 9 1002 5 79
1952224N14135 1952 51 WP MM KAREN 1952-08-23 00:00:00 ET 54.1000 174.100 1002 tokyo main 681 677 _OO___________ -1 54.1000 174.100 6 1002 0 0 0 54.1000 174.100 9 1002 4 70
1952224N14135 1952 51 WP MM KAREN 1952-08-23 03:00:00 ET 54.1699 174.445 main 677 671 _PP___________ -1 54.1699 174.445 6 1002 0 0 54.1699 174.445 9 1002 4 60
1952224N14135 1952 51 WP MM KAREN 1952-08-23 06:00:00 ET 54.3000 174.700 1002 tokyo main 673 655 _OO___________ -1 54.3000 174.700 6 1002 0 0 0 54.3000 174.700 9 1002 4 35
1952224N14135 1952 51 WP MM KAREN 1952-08-23 09:00:00 ET 54.5308 174.882 main 658 630 _PP___________ -1 54.5349 174.887 6 1004 0 0 54.5225 174.872 9 1004 5 19
1952224N14135 1952 51 WP MM KAREN 1952-08-23 12:00:00 ET 54.8000 175.000 1006 tokyo main 630 612 _OO___________ -1 54.8000 175.000 6 1006 0 0 0 54.8000 175.000 9 1006 5 16
1952224N14135 1952 51 WP MM KAREN 1952-08-23 15:00:00 ET 55.0149 175.117 main 612 592 _P____________ -1 55.0149 175.117 6 1006 0 0 9 4 8
1952224N14135 1952 51 WP MM KAREN 1952-08-23 18:00:00 ET 55.2000 175.100 1006 tokyo main 592 567 _O____________ -1 55.2000 175.100 6 1006 0 0 0 4 345
1952224N14135 1952 51 WP MM KAREN 1952-08-23 21:00:00 ET 55.4094 174.922 main 567 546 _P____________ -1 55.4094 174.922 6 1006 0 0 5 311
1952224N14135 1952 51 WP MM KAREN 1952-08-24 00:00:00 ET 55.5000 174.500 1006 tokyo main 546 538 _O____________ -1 55.5000 174.500 6 1006 0 0 0 6 266
1952224N14135 1952 51 WP MM KAREN 1952-08-24 03:00:00 ET 55.3610 173.785 main 539 539 _P____________ -1 55.3610 173.785 6 1005 0 0 9 245
1952224N14135 1952 51 WP MM KAREN 1952-08-24 06:00:00 ET 55.1000 173.000 1004 tokyo main 555 553 _O____________ -1 55.1000 173.000 6 1004 0 0 0 9 239
1952224N14135 1952 51 WP MM KAREN 1952-08-24 09:00:00 ET 54.8724 172.360 main 567 561 _P____________ -1 54.8724 172.360 6 1004 0 0 8 232
1952224N14135 1952 51 WP MM KAREN 1952-08-24 12:00:00 ET 54.6000 171.900 1004 tokyo main 561 558 _O____________ -1 54.6000 171.900 6 1004 0 0 0 7 213
1952224N14135 1952 51 WP MM KAREN 1952-08-24 15:00:00 ET 54.2721 171.676 main 563 562 _P____________ -1 54.2721 171.676 6 1004 0 0 7 194
1952224N14135 1952 51 WP MM KAREN 1952-08-24 18:00:00 ET 53.9000 171.600 1004 tokyo main 578 577 _O____________ -1 53.9000 171.600 6 1004 0 0 0 8 193
1952224N14135 1952 51 WP MM KAREN 1952-08-24 21:00:00 ET 53.5214 171.388 main 590 590 _P____________ -1 53.5214 171.388 6 1004 0 0 8 184
1952224N14135 1952 51 WP MM KAREN 1952-08-25 00:00:00 ET 53.1000 171.500 1004 tokyo main 621 621 _O____________ -1 53.1000 171.500 6 1004 0 0 0 12 157
1952224N14135 1952 51 WP MM KAREN 1952-08-25 03:00:00 ET 52.4540 172.124 main 693 693 _P____________ -1 52.4540 172.124 6 1004 0 0 15 132
1952224N14135 1952 51 WP MM KAREN 1952-08-25 06:00:00 ET 52.1000 173.300 1004 tokyo main 784 784 _O____________ -1 52.1000 173.300 6 1004 0 0 0 19 86
1952224N14135 1952 51 WP MM KAREN 1952-08-25 09:00:00 ET 52.5848 175.203 main 856 843 _P____________ -1 52.5848 175.203 6 1003 0 0 25 65
1952224N14135 1952 51 WP MM KAREN 1952-08-25 12:00:00 ET 53.2000 177.100 1002 tokyo main 848 848 _O____________ -1 53.2000 177.100 6 1002 0 0 0 17 67
1952224N14135 1952 51 WP MM KAREN 1952-08-25 15:00:00 ET 53.2345 177.813 main 870 843 _P____________ -1 53.2345 177.813 6 1001 0 0 8 90
1952224N14135 1952 51 WP MM KAREN 1952-08-25 18:00:00 ET 53.2000 178.500 1000 tokyo main 837 704 _O____________ -1 53.2000 178.500 6 1000 0 0 0 17 85
1952224N14135 1952 51 EP CP KAREN 1952-08-25 21:00:00 ET 53.3811 180.592 main 698 587 _P____________ -1 53.3811 -179.408 6 1000 0 0 23 78
1952224N14135 1952 51 EP CP KAREN 1952-08-26 00:00:00 ET 53.7000 182.300 main 587 582 _O____________ -1 53.7000 182.300 6 1000 0 0 0 12 43
1952224N14135 1952 51 EP CP KAREN 1952-08-26 03:00:00 ET 54.2777 182.009 main 616 616 _P____________ -1 54.2777 -177.991 6 1000 0 0 13 325
1952224N14135 1952 51 EP CP KAREN 1952-08-26 06:00:00 ET 54.8000 181.000 main 691 691 _O____________ -1 54.8000 181.000 6 1000 0 0 0 11 308
1952224N14135 1952 51 EP CP KAREN 1952-08-26 09:00:00 ET 54.9244 180.552 main 718 718 _P____________ -1 54.9244 -179.448 6 999 0 0 5 282
1952224N14135 1952 51 EP CP KAREN 1952-08-26 12:00:00 ET 54.9000 180.200 main 743 743 _O____________ -1 54.9000 180.200 6 998 0 0 0 4 274
1952224N14135 1952 51 WP MM KAREN 1952-08-26 15:00:00 ET 54.9499 179.835 main 767 767 _P____________ -1 54.9499 179.835 6 998 0 0 4 284
1952224N14135 1952 51 WP MM KAREN 1952-08-26 18:00:00 ET 55.0000 179.500 998 tokyo main 769 756 _O____________ -1 55.0000 179.500 6 998 0 0 0 4 279
1952224N14135 1952 51 WP MM KAREN 1952-08-26 21:00:00 ET 55.0126 179.155 main 756 736 _P____________ -1 55.0126 179.155 6 998 0 0 4 286
1952224N14135 1952 51 WP MM KAREN 1952-08-27 00:00:00 ET 55.1000 178.900 998 tokyo main 736 706 _O____________ -1 55.1000 178.900 6 998 0 0 0 4 330
1952224N14135 1952 51 WP MM KAREN 1952-08-27 03:00:00 ET 55.3923 178.775 main 706 682 _P____________ -1 55.3923 178.775 6 997 0 0 6 355
1952224N14135 1952 51 WP MM KAREN 1952-08-27 06:00:00 ET 55.7000 178.800 996 tokyo main 682 674 _O____________ -1 55.7000 178.800 6 996 0 0 0 4 13
1952224N14135 1952 51 WP MM KAREN 1952-08-27 09:00:00 ET 55.8301 178.962 main 682 673 _P____________ -1 55.8301 178.962 6 996 0 0 3 48
1952224N14135 1952 51 WP MM KAREN 1952-08-27 12:00:00 ET 55.9000 179.200 996 tokyo main 680 674 _O____________ -1 55.9000 179.200 6 996 0 0 0 3 57
1952224N14135 1952 51 WP MM KAREN 1952-08-27 15:00:00 ET 55.9772 179.364 main 678 672 _P____________ -1 55.9772 179.364 6 997 0 0 3 48
1952224N14135 1952 51 WP MM KAREN 1952-08-27 18:00:00 ET 56.1000 179.600 998 tokyo main 676 665 _O____________ -1 56.1000 179.600 6 998 0 0 0 5 46
1952224N14135 1952 51 WP MM KAREN 1952-08-27 21:00:00 ET 56.3206 179.998 main 665 634 _P____________ -1 56.3206 179.998 6 999 0 0 7 45
1952224N14135 1952 51 EP CP KAREN 1952-08-28 00:00:00 ET 56.6000 180.500 main 635 _O____________ -1 56.6000 180.500 6 1000 0 0 0 8 45

デジタル台風データ・検索

IBTrACS Databaseについて

本データベースは、米国NOAAが公開する1842年以降の世界の熱帯低気圧のベストトラックデータアーカイブInternational Best Track Archive for Climate Stewardship (IBTrACS)を、ウェブで閲覧しやすい形式に変換したものです。

最終更新日:2021-10-21